createdAt,value
2022-12-01T00:00:03.341Z,57.5
2022-12-01T00:05:01.253Z,58.9
2022-12-01T00:10:02.004Z,60.4
2022-12-01T00:15:02.017Z,61.6
2022-12-01T00:20:01.465Z,63.1
2022-12-01T00:25:01.513Z,61.4
2022-12-01T00:30:02.572Z,60.8
2022-12-01T00:35:01.476Z,59.9
2022-12-01T00:40:01.467Z,54.7
2022-12-01T00:45:02.034Z,55.0
2022-12-01T00:50:01.503Z,56.1
2022-12-01T00:55:02.203Z,55.4
2022-12-01T01:00:02.676Z,55.8
2022-12-01T01:05:01.484Z,59.4
2022-12-01T01:10:01.997Z,58.7
2022-12-01T01:15:02.136Z,57.0
2022-12-01T01:20:01.499Z,56.2
2022-12-01T01:25:01.522Z,55.6
2022-12-01T01:30:02.864Z,55.1
2022-12-01T01:35:01.583Z,55.6
2022-12-01T01:40:01.482Z,56.6
2022-12-01T01:45:02.679Z,55.4
2022-12-01T01:50:01.431Z,56.4
2022-12-01T01:55:01.471Z,57.8
2022-12-01T02:00:01.491Z,58.3
2022-12-01T02:05:02.331Z,58.1
2022-12-01T02:10:02.198Z,60.9
2022-12-01T02:15:10.829Z,61.4
2022-12-01T02:20:01.478Z,60.4
2022-12-01T02:25:01.694Z,60.1
2022-12-01T02:30:04.833Z,60.5
2022-12-01T02:35:01.478Z,60.2
2022-12-01T02:40:13.126Z,59.1
2022-12-01T02:45:05.238Z,59.6
2022-12-01T02:50:01.518Z,59.5
2022-12-01T02:55:01.482Z,59.8
2022-12-01T03:00:03.590Z,57.9
2022-12-01T03:10:01.515Z,56.0
2022-12-01T03:15:01.497Z,55.5
2022-12-01T03:20:01.400Z,49.5
2022-12-01T03:25:01.489Z,50.0
2022-12-01T03:30:02.841Z,49.6
2022-12-01T03:35:01.547Z,51.4
2022-12-01T03:40:01.866Z,51.2
2022-12-01T03:45:06.090Z,55.5
2022-12-01T03:50:01.483Z,56.4
2022-12-01T03:55:01.523Z,56.8
2022-12-01T04:00:01.497Z,56.7
2022-12-01T04:05:01.525Z,57.2
2022-12-01T04:10:01.492Z,59.7
2022-12-01T04:15:03.776Z,59.6
2022-12-01T04:20:02.055Z,61.0
2022-12-01T04:25:01.534Z,62.9
2022-12-01T04:30:02.688Z,63.5
2022-12-01T04:35:01.508Z,62.3
2022-12-01T04:45:03.497Z,62.4
2022-12-01T04:55:01.693Z,62.8
2022-12-01T05:00:03.161Z,63.7
2022-12-01T05:05:01.609Z,64.5
2022-12-01T05:15:02.018Z,61.5
2022-12-01T05:20:01.503Z,63.2
2022-12-01T05:25:01.551Z,63.8
2022-12-01T05:30:03.437Z,63.6
2022-12-01T05:35:01.508Z,64.5
2022-12-01T05:40:01.560Z,66.0
2022-12-01T05:45:02.067Z,65.3
2022-12-01T05:50:05.378Z,66.8
2022-12-01T05:55:01.510Z,66.2
2022-12-01T06:00:03.424Z,60.5
2022-12-01T06:05:01.554Z,60.3
2022-12-01T06:10:01.948Z,61.1
2022-12-01T06:15:02.200Z,60.0
2022-12-01T06:20:01.580Z,61.2
2022-12-01T06:25:02.370Z,66.4
2022-12-01T06:30:03.672Z,65.4
2022-12-01T06:35:01.567Z,65.2
2022-12-01T06:40:02.085Z,65.7
2022-12-01T06:45:02.014Z,65.4
2022-12-01T06:50:01.624Z,66.0
2022-12-01T06:55:01.565Z,69.4
2022-12-01T07:00:03.727Z,68.8
2022-12-01T07:05:01.568Z,68.5
2022-12-01T07:10:01.569Z,67.6
2022-12-01T07:15:03.094Z,68.2
2022-12-01T07:20:01.555Z,65.4
2022-12-01T07:25:01.858Z,65.0
2022-12-01T07:30:02.122Z,64.3
2022-12-01T07:35:01.588Z,66.5
2022-12-01T07:40:02.043Z,65.2
2022-12-01T07:45:02.776Z,65.2
2022-12-01T07:50:01.526Z,65.1
2022-12-01T07:55:01.554Z,63.4
2022-12-01T08:00:03.457Z,62.5
2022-12-01T08:05:01.550Z,63.3
2022-12-01T08:10:02.736Z,64.6
2022-12-01T08:15:02.433Z,64.3
2022-12-01T08:20:01.217Z,65.6
2022-12-01T08:25:01.614Z,66.2
2022-12-01T08:30:02.473Z,66.8
2022-12-01T08:35:01.521Z,66.9
2022-12-01T08:40:01.921Z,64.1
2022-12-01T08:45:01.567Z,64.7
2022-12-01T08:50:01.522Z,65.6
2022-12-01T08:55:01.531Z,65.0
2022-12-01T09:00:02.814Z,65.9
2022-12-01T09:05:01.571Z,69.7
2022-12-01T09:10:01.524Z,69.9
2022-12-01T09:15:02.177Z,69.8
2022-12-01T09:20:02.347Z,70.4
2022-12-01T09:25:01.557Z,69.3
2022-12-01T09:30:01.972Z,69.0
2022-12-01T09:35:01.484Z,68.6
2022-12-01T09:40:02.250Z,66.8
2022-12-01T09:45:03.149Z,65.6
2022-12-01T09:50:01.488Z,66.4
2022-12-01T09:55:01.458Z,67.0
2022-12-01T10:00:05.465Z,68.3
2022-12-01T10:05:01.413Z,69.9
2022-12-01T10:10:01.486Z,71.8
2022-12-01T10:15:14.348Z,70.9
2022-12-01T10:20:01.529Z,70.6
2022-12-01T10:25:01.589Z,69.8
2022-12-01T10:30:04.523Z,70.1
2022-12-01T10:35:01.644Z,69.4
2022-12-01T10:40:01.453Z,69.0
2022-12-01T10:45:04.864Z,70.5
2022-12-01T10:50:01.836Z,71.1
2022-12-01T10:55:01.893Z,70.7
2022-12-01T11:00:05.359Z,70.2
2022-12-01T11:05:01.561Z,72.2
2022-12-01T11:10:01.554Z,71.2
2022-12-01T11:15:04.403Z,70.8
2022-12-01T11:20:01.463Z,67.4
2022-12-01T11:25:01.574Z,66.7
2022-12-01T11:30:05.129Z,64.8
2022-12-01T11:40:04.695Z,65.9
2022-12-01T11:45:06.064Z,68.8
2022-12-01T11:55:04.381Z,70.4
2022-12-01T12:00:11.523Z,70.2
2022-12-01T12:05:01.539Z,68.3
2022-12-01T12:10:17.358Z,68.6
2022-12-01T12:15:16.850Z,68.4
2022-12-01T12:20:09.593Z,67.0
2022-12-01T12:25:01.796Z,66.1
2022-12-01T12:30:07.246Z,65.4
2022-12-01T12:35:01.537Z,64.6
2022-12-01T12:40:02.061Z,63.6
2022-12-01T12:45:10.474Z,63.6
2022-12-01T12:50:01.507Z,63.0
2022-12-01T12:55:01.436Z,64.0
2022-12-01T13:00:06.543Z,64.8
2022-12-01T13:05:01.561Z,66.8
2022-12-01T13:15:05.487Z,67.5
2022-12-01T13:20:01.509Z,67.2
2022-12-01T13:25:01.523Z,66.5
2022-12-01T13:30:02.512Z,65.2
2022-12-01T13:35:01.538Z,64.8
2022-12-01T13:40:01.527Z,64.0
2022-12-01T13:45:09.453Z,63.4
2022-12-01T13:50:17.185Z,64.7
2022-12-01T13:55:17.136Z,63.8
2022-12-01T14:00:06.067Z,63.3
2022-12-01T14:05:01.405Z,64.3
2022-12-01T14:10:01.493Z,64.8
2022-12-01T14:15:18.285Z,68.8
2022-12-01T14:20:01.464Z,95.4
2022-12-01T14:25:01.944Z,98.2
2022-12-01T14:45:03.268Z,50.8
2022-12-01T14:51:01.518Z,55.7
2022-12-01T14:56:01.516Z,61.5
2022-12-01T15:01:01.755Z,62.4
2022-12-01T15:06:03.396Z,64.6
2022-12-01T15:11:03.383Z,71.7
2022-12-01T15:16:01.559Z,74.7
2022-12-01T15:21:01.555Z,73.7
2022-12-01T15:26:02.555Z,74.5
2022-12-01T15:31:01.881Z,75.0
2022-12-01T15:36:01.564Z,73.0
2022-12-01T15:41:30.978Z,72.4
2022-12-01T15:47:01.518Z,72.8
2022-12-01T15:52:01.429Z,72.6
2022-12-01T15:57:01.539Z,71.9
2022-12-01T16:02:14.385Z,70.9
2022-12-01T16:07:01.541Z,65.8
2022-12-01T16:12:01.508Z,66.7
2022-12-01T16:17:01.616Z,67.3
2022-12-01T16:22:01.525Z,67.6
2022-12-01T16:27:01.520Z,66.8
2022-12-01T16:55:02.174Z,67.0
2022-12-01T17:00:02.891Z,70.2
2022-12-01T17:06:01.525Z,67.2
2022-12-01T17:11:01.530Z,65.9
2022-12-01T17:16:01.565Z,63.6
2022-12-01T17:21:01.520Z,63.9
2022-12-01T17:26:01.509Z,62.8
2022-12-01T17:31:01.667Z,63.6
2022-12-01T17:36:01.922Z,62.9
2022-12-01T17:41:01.508Z,65.6
2022-12-01T17:46:01.577Z,64.8
2022-12-01T17:51:01.645Z,65.6
2022-12-01T17:56:01.537Z,66.6
2022-12-01T18:01:01.526Z,68.2
2022-12-01T18:06:01.414Z,67.4
2022-12-01T18:11:01.551Z,68.6
2022-12-01T18:16:05.570Z,67.8
2022-12-01T18:21:01.514Z,66.1
2022-12-01T18:26:01.530Z,66.7
2022-12-01T18:31:01.625Z,66.8
2022-12-01T18:36:01.536Z,66.6
2022-12-01T18:41:01.508Z,67.2
2022-12-01T18:46:01.506Z,67.1
2022-12-01T18:51:01.552Z,68.1
2022-12-01T18:56:03.554Z,67.6
2022-12-01T19:01:01.528Z,67.0
2022-12-01T19:06:01.530Z,66.8
2022-12-01T19:11:01.572Z,67.1
2022-12-01T19:16:05.977Z,65.5
2022-12-01T19:21:01.529Z,67.0
2022-12-01T19:26:01.515Z,67.5
2022-12-01T19:31:01.574Z,67.2
2022-12-01T19:36:01.516Z,69.0
2022-12-01T19:41:01.505Z,69.2
2022-12-01T19:46:01.258Z,68.5
2022-12-01T19:51:01.595Z,69.1
2022-12-01T19:56:01.533Z,69.2
2022-12-01T20:01:11.063Z,68.5
2022-12-01T20:06:01.611Z,68.1
2022-12-01T20:11:01.534Z,69.4
2022-12-01T20:16:01.487Z,68.2
2022-12-01T20:21:01.417Z,67.1
2022-12-01T20:26:01.504Z,66.8
2022-12-01T20:31:01.527Z,68.1
2022-12-01T20:36:01.516Z,66.2
2022-12-01T20:41:01.618Z,65.7
2022-12-01T20:46:01.568Z,65.3
2022-12-01T20:51:01.557Z,61.8
2022-12-01T20:56:01.419Z,60.9
2022-12-01T21:01:01.599Z,61.0
2022-12-01T21:06:01.533Z,60.7
2022-12-01T21:11:01.541Z,61.3
2022-12-01T21:16:05.000Z,63.3
2022-12-01T21:22:01.517Z,63.0
2022-12-01T21:27:01.438Z,59.3
2022-12-01T21:32:01.501Z,61.8
2022-12-01T21:37:01.512Z,61.7
2022-12-01T21:42:01.500Z,62.4
2022-12-01T21:47:01.900Z,61.6
2022-12-01T21:52:05.995Z,64.3
2022-12-01T21:57:01.502Z,63.0
2022-12-01T22:02:01.500Z,64.9
2022-12-01T22:07:01.985Z,65.9
2022-12-01T22:12:01.644Z,67.8
2022-12-01T22:17:01.443Z,69.2
2022-12-01T22:22:01.520Z,70.2
2022-12-01T22:27:01.527Z,69.5
2022-12-01T22:32:01.511Z,69.6
2022-12-01T22:37:01.524Z,70.0
2022-12-01T22:42:01.507Z,70.2
2022-12-01T22:47:01.439Z,70.6
2022-12-01T22:52:01.438Z,61.8
2022-12-01T22:57:01.524Z,62.4
2022-12-01T23:02:01.571Z,62.0
2022-12-01T23:07:01.556Z,62.4
2022-12-01T23:12:01.573Z,63.2
2022-12-01T23:17:01.513Z,71.0
2022-12-01T23:22:02.029Z,65.6
2022-12-01T23:27:01.541Z,66.3
2022-12-01T23:32:01.509Z,67.6
2022-12-01T23:37:01.520Z,66.4
2022-12-01T23:42:01.623Z,68.2
2022-12-01T23:47:01.617Z,74.2
2022-12-01T23:52:01.524Z,74.9
2022-12-01T23:57:01.508Z,74.7
